KCXP

Carson Airport

Carson City, Nevada, USA
METAR KCXP 221535Z AUTO 00000KT 10SM CLR 14/09 A2999 RMK AO2
Observed Flight Rules
May-22 @ 15:35 UTC (16 minutes ago) Visual Flight Rules
Visibility Clouds
10 miles
  • Clear skies
Temperatures Readings
Current 14°C / 57°F
Dewpoint 9°C / 48°F
Humidity 72%
Altimeter 29.99" Hg
Pressure 1016 hPa
Elevation 1435
METAR KCXP 221535Z AUTO 00000KT 10SM CLR 14/09 A2999 RMK AO2
Observed Flight Rules
May-22 @ 15:35 UTC
(16 minutes ago)
VFR
Clouds
  • Clear skies
Temperature Dewpoint
14°C / 57°F 9°C / 48°F
Humidity Altimeter Pressure
72% 29.99" Hg 1016 hPa